Time;durP1;ratioP1;P1;durP2;ratioP2;P2;SDS_P1;SDS_P2;PMS_P1;PMS_P2;Temp;Humidity;BMP_temperature;BMP_pressure;BME280_temperature;BME280_humidity;BME280_pressure;Samples;Min_cycle;Max_cycle;Signal;HPM_P1;HPM_P2
2022/10/26 00:01:15;;;;;;;3.88;2.65;;;14.60;71.60;;;;;;4804038;29;20054;-53
2022/10/26 00:03:45;;;;;;;3.05;1.90;;;14.60;72.10;;;;;;4806645;29;20473;-53
2022/10/26 00:06:15;;;;;;;6.20;2.72;;;14.60;71.60;;;;;;4813225;29;20046;-51
2022/10/26 00:08:42;;;;;;;3.00;2.22;;;14.70;71.60;;;;;;4803819;29;20605;-54
2022/10/26 00:11:10;;;;;;;4.95;2.55;;;14.70;71.60;;;;;;4806713;29;20035;-54
2022/10/26 00:13:38;;;;;;;3.45;1.98;;;14.70;71.60;;;;;;4806219;29;20061;-53
2022/10/26 00:16:10;;;;;;;2.20;2.00;;;14.80;71.70;;;;;;4803402;29;20047;-50
2022/10/26 00:18:40;;;;;;;2.60;1.75;;;14.80;71.70;;;;;;4800918;29;20122;-53
2022/10/26 00:21:09;;;;;;;4.07;1.67;;;14.80;71.70;;;;;;4806099;29;20054;-54
2022/10/26 00:23:36;;;;;;;2.88;1.95;;;14.80;71.70;;;;;;4806128;29;20043;-54
2022/10/26 00:26:06;;;;;;;3.20;1.98;;;14.80;71.60;;;;;;4804144;29;20055;-52
2022/10/26 00:28:34;;;;;;;4.32;1.90;;;14.90;71.60;;;;;;4803966;29;20058;-54
2022/10/26 00:31:02;;;;;;;5.28;2.38;;;14.80;71.50;;;;;;4806431;29;20495;-53
2022/10/26 00:33:30;;;;;;;1.83;1.63;;;14.90;71.50;;;;;;4806221;29;20398;-50
2022/10/26 00:35:57;;;;;;;3.13;1.80;;;14.90;71.40;;;;;;4802275;29;20053;-55
2022/10/26 00:38:24;;;;;;;2.33;1.85;;;14.80;71.30;;;;;;4801006;29;20065;-54
2022/10/26 00:40:51;;;;;;;2.90;1.67;;;14.80;71.30;;;;;;4805982;29;20070;-53
2022/10/26 00:43:20;;;;;;;3.60;1.70;;;14.90;71.50;;;;;;4805869;29;20039;-53
2022/10/26 00:45:49;;;;;;;2.20;2.00;;;14.80;71.40;;;;;;4801341;29;20074;-53
2022/10/26 00:48:30;;;;;;;3.80;1.50;;;14.80;71.30;;;;;;4806136;29;20100;-52
2022/10/26 00:51:01;;;;;;;3.42;1.70;;;14.80;71.30;;;;;;4805898;29;20558;-53
2022/10/26 00:53:29;;;;;;;3.63;1.70;;;14.80;71.20;;;;;;4803670;29;20058;-53
2022/10/26 00:55:56;;;;;;;3.28;2.20;;;14.80;71.10;;;;;;4799077;29;20046;-50
2022/10/26 00:58:24;;;;;;;3.20;1.50;;;14.80;71.20;;;;;;4804551;29;20047;-53
2022/10/26 01:00:52;;;;;;;3.38;1.60;;;14.80;71.40;;;;;;4806007;29;20047;-53
2022/10/26 01:03:19;;;;;;;2.88;1.55;;;14.80;71.40;;;;;;4803280;29;20126;-53
2022/10/26 01:05:48;;;;;;;3.45;1.42;;;14.70;71.40;;;;;;4804544;29;20050;-52
2022/10/26 01:08:17;;;;;;;3.15;1.48;;;14.70;71.50;;;;;;4807016;29;20433;-55
2022/10/26 01:10:44;;;;;;;1.95;1.70;;;14.70;71.60;;;;;;4805219;29;20047;-54
2022/10/26 01:13:14;;;;;;;2.05;1.40;;;14.70;71.60;;;;;;4799355;29;20054;-54
2022/10/26 01:15:49;;;;;;;;;;;14.70;71.60;;;;;;4802369;29;20122;-53
2022/10/26 01:18:16;;;;;;;;;;;14.80;71.70;;;;;;4803533;29;20015;-51
2022/10/26 01:21:15;;;;;;;5.07;1.63;;;14.80;71.40;;;;;;4805629;29;19933;-54
2022/10/26 01:23:59;;;;;;;3.35;1.50;;;14.80;71.40;;;;;;4803019;29;20058;-55
2022/10/26 01:27:04;;;;;;;2.75;1.48;;;14.70;71.40;;;;;;4804199;29;20416;-53
2022/10/26 01:29:49;;;;;;;2.40;1.58;;;14.70;72.00;;;;;;4805902;29;20133;-51
2022/10/26 01:32:45;;;;;;;3.05;1.77;;;14.70;72.20;;;;;;4799599;29;20513;-54
2022/10/26 01:35:27;;;;;;;4.95;1.67;;;14.70;72.40;;;;;;4801879;29;20062;-54
2022/10/26 01:38:00;;;;;;;3.10;1.42;;;14.70;72.10;;;;;;4805381;29;20130;-48
2022/10/26 01:40:34;;;;;;;2.58;1.52;;;14.70;72.10;;;;;;4804688;29;20501;-53
2022/10/26 01:43:06;;;;;;;1.63;1.20;;;14.70;72.20;;;;;;4802483;29;20042;-51
2022/10/26 01:45:34;;;;;;;2.80;1.40;;;14.70;72.30;;;;;;4805209;29;20071;-53
2022/10/26 01:48:03;;;;;;;2.10;1.75;;;14.70;72.30;;;;;;4805619;29;20130;-53
2022/10/26 01:50:33;;;;;;;11.35;2.47;;;14.80;72.50;;;;;;4803076;29;20552;-51
2022/10/26 01:52:59;;;;;;;3.63;1.70;;;14.80;72.60;;;;;;4800974;29;20057;-53
2022/10/26 01:55:47;;;;;;;4.85;2.08;;;14.80;72.70;;;;;;4804595;29;20058;-51
2022/10/26 01:58:22;;;;;;;3.72;1.83;;;14.80;73.40;;;;;;4805062;29;20046;-54
2022/10/26 02:01:01;;;;;;;3.88;2.50;;;14.80;73.20;;;;;;4799606;29;20054;-54
2022/10/26 02:03:47;;;;;;;3.53;1.40;;;14.90;73.30;;;;;;4804114;29;20057;-53
2022/10/26 02:06:39;;;;;;;2.35;1.92;;;14.90;73.50;;;;;;4810633;29;20146;-54
2022/10/26 02:09:22;;;;;;;4.97;1.75;;;14.90;73.10;;;;;;4818497;29;20089;-52
2022/10/26 02:11:52;;;;;;;2.65;1.85;;;14.90;73.20;;;;;;4797010;29;20047;-53
2022/10/26 02:14:37;;;;;;;;;;;15.00;73.20;;;;;;4803068;29;20058;-54
2022/10/26 02:17:10;;;;;;;3.00;1.95;;;15.10;73.50;;;;;;4811730;29;19981;-52
2022/10/26 02:19:39;;;;;;;7.15;2.05;;;15.00;72.70;;;;;;4811463;29;20065;-54
2022/10/26 02:22:15;;;;;;;4.32;2.25;;;15.10;72.90;;;;;;4802131;29;20381;-54
2022/10/26 02:24:43;;;;;;;5.05;2.17;;;15.10;73.20;;;;;;4804159;29;20043;-54
2022/10/26 02:27:15;;;;;;;4.15;2.20;;;15.10;73.20;;;;;;4803998;29;20523;-53
2022/10/26 02:29:43;;;;;;;5.22;2.50;;;15.10;73.30;;;;;;4800892;29;20042;-54
2022/10/26 02:32:11;;;;;;;3.92;2.47;;;15.10;73.20;;;;;;4804025;29;20061;-54
2022/10/26 02:34:39;;;;;;;4.40;1.95;;;15.10;73.20;;;;;;4803520;29;20070;-50
2022/10/26 02:37:07;;;;;;;3.10;2.60;;;15.10;73.30;;;;;;4802494;29;20136;-55
2022/10/26 02:39:37;;;;;;;4.20;3.15;;;15.20;73.30;;;;;;4801481;29;20042;-54
2022/10/26 02:42:09;;;;;;;4.95;2.88;;;15.20;73.40;;;;;;4804099;29;20492;-50
2022/10/26 02:44:43;;;;;;;4.82;3.28;;;15.20;73.40;;;;;;4804170;29;20051;-54
2022/10/26 02:47:10;;;;;;;4.53;3.25;;;15.20;73.50;;;;;;4801972;29;20096;-54
2022/10/26 02:49:37;;;;;;;6.47;2.83;;;15.20;73.40;;;;;;4799341;29;20210;-53
2022/10/26 02:52:22;;;;;;;3.83;3.33;;;15.30;73.40;;;;;;4803790;29;20050;-53
2022/10/26 02:54:55;;;;;;;4.72;3.70;;;15.30;73.60;;;;;;4803854;29;20082;-53
2022/10/26 02:57:40;;;;;;;6.32;2.90;;;15.30;73.50;;;;;;4800050;29;20038;-54
2022/10/26 03:00:10;;;;;;;4.85;2.97;;;15.30;73.70;;;;;;4802907;29;20046;-52
2022/10/26 03:02:50;;;;;;;5.57;3.08;;;15.30;73.50;;;;;;4803551;29;20111;-53
2022/10/26 03:05:26;;;;;;;5.38;3.00;;;15.30;73.50;;;;;;4797891;29;20051;-53
2022/10/26 03:07:55;;;;;;;6.38;3.53;;;15.40;73.50;;;;;;4813937;29;20075;-54
2022/10/26 03:10:23;;;;;;;4.18;2.83;;;15.40;73.60;;;;;;4802483;29;20054;-54
2022/10/26 03:12:49;;;;;;;5.45;2.67;;;15.40;73.60;;;;;;4803385;29;20073;-52
2022/10/26 03:15:17;;;;;;;4.90;2.83;;;15.40;73.60;;;;;;4801635;29;20103;-53
2022/10/26 03:17:43;;;;;;;3.83;3.45;;;15.40;73.60;;;;;;4803781;29;20496;-54
2022/10/26 03:20:12;;;;;;;4.78;3.00;;;15.40;73.60;;;;;;4803407;29;20421;-54
2022/10/26 03:22:39;;;;;;;7.47;2.70;;;15.40;73.60;;;;;;4803122;29;20413;-53
2022/10/26 03:25:06;;;;;;;3.83;3.08;;;15.50;73.70;;;;;;4798849;29;20077;-55
2022/10/26 03:27:34;;;;;;;5.80;3.20;;;15.50;73.80;;;;;;4799501;29;20390;-53
2022/10/26 03:30:00;;;;;;;4.80;3.17;;;15.50;73.80;;;;;;4803676;29;20047;-53
2022/10/26 03:32:30;;;;;;;5.10;3.03;;;15.50;73.80;;;;;;4802933;29;20069;-54
2022/10/26 03:34:56;;;;;;;4.55;2.42;;;15.50;73.80;;;;;;4800246;29;20051;-54
2022/10/26 03:37:23;;;;;;;5.80;2.92;;;15.50;73.70;;;;;;4801905;29;20081;-54
2022/10/26 03:39:49;;;;;;;3.85;3.40;;;15.60;73.70;;;;;;4803662;29;20497;-53
2022/10/26 03:42:16;;;;;;;6.22;2.75;;;15.60;73.70;;;;;;4803286;29;20062;-53
2022/10/26 03:44:43;;;;;;;6.05;3.10;;;15.60;73.80;;;;;;4797100;29;20053;-53
2022/10/26 03:47:09;;;;;;;5.00;3.08;;;15.60;73.70;;;;;;4803152;29;20057;-54
2022/10/26 03:49:36;;;;;;;5.40;2.67;;;15.60;73.70;;;;;;4803488;29;20511;-54
2022/10/26 03:52:03;;;;;;;6.40;2.85;;;15.60;73.70;;;;;;4797997;29;20118;-54
2022/10/26 03:54:29;;;;;;;4.57;2.92;;;15.50;73.60;;;;;;4802174;29;20047;-53
2022/10/26 03:56:56;;;;;;;3.17;2.55;;;15.60;73.60;;;;;;4803429;29;20043;-54
2022/10/26 03:59:23;;;;;;;7.43;3.90;;;15.60;73.60;;;;;;4801871;29;20058;-55
2022/10/26 04:01:49;;;;;;;4.85;2.95;;;15.60;73.50;;;;;;4800325;29;20127;-53
2022/10/26 04:04:22;;;;;;;5.78;2.65;;;15.60;73.60;;;;;;4797409;29;20047;-51
2022/10/26 04:06:49;;;;;;;5.85;2.35;;;15.50;73.50;;;;;;4805249;29;20067;-53
2022/10/26 04:09:15;;;;;;;5.18;2.70;;;15.50;73.50;;;;;;4801830;29;20505;-50
2022/10/26 04:11:42;;;;;;;7.93;2.45;;;15.50;73.50;;;;;;4799209;29;20440;-51
2022/10/26 04:14:09;;;;;;;5.75;2.50;;;15.50;73.60;;;;;;4802114;29;20047;-54
2022/10/26 04:16:37;;;;;;;3.83;2.55;;;15.50;73.60;;;;;;4803147;29;20454;-54
2022/10/26 04:19:03;;;;;;;8.23;3.00;;;15.50;73.60;;;;;;4804807;29;20057;-54
2022/10/26 04:21:34;;;;;;;3.75;2.35;;;15.60;73.70;;;;;;4799535;29;20057;-49
2022/10/26 04:24:01;;;;;;;6.45;2.65;;;15.50;73.60;;;;;;4802060;29;20047;-55
2022/10/26 04:26:31;;;;;;;7.55;2.75;;;15.50;73.60;;;;;;4802078;29;20043;-50
2022/10/26 04:28:59;;;;;;;6.90;2.90;;;15.50;73.70;;;;;;4802937;29;20115;-52
2022/10/26 04:31:26;;;;;;;5.05;2.80;;;15.50;73.70;;;;;;4797703;29;20751;-54
2022/10/26 04:33:52;;;;;;;8.50;2.83;;;15.50;73.70;;;;;;4802591;29;20043;-54
2022/10/26 04:36:19;;;;;;;5.82;3.20;;;15.50;73.80;;;;;;4801558;29;20378;-54
2022/10/26 04:38:48;;;;;;;5.20;2.83;;;15.50;73.80;;;;;;4803480;29;20053;-54
2022/10/26 04:41:15;;;;;;;8.43;3.50;;;15.50;73.90;;;;;;4802523;29;20118;-54
2022/10/26 04:43:41;;;;;;;10.05;2.95;;;15.50;74.00;;;;;;4805585;29;20042;-54
2022/10/26 04:46:08;;;;;;;8.77;3.03;;;15.50;74.00;;;;;;4819725;29;20060;-54
2022/10/26 04:48:39;;;;;;;11.25;3.28;;;15.50;74.00;;;;;;4823870;29;20058;-54
2022/10/26 04:51:05;;;;;;;8.90;2.65;;;15.50;74.00;;;;;;4808532;29;20047;-54
2022/10/26 04:53:33;;;;;;;8.55;2.97;;;15.50;74.10;;;;;;4805401;29;20405;-53
2022/10/26 04:56:00;;;;;;;7.50;2.70;;;15.60;74.20;;;;;;4805580;29;20508;-54
2022/10/26 04:58:27;;;;;;;10.52;2.97;;;15.60;74.30;;;;;;4793687;29;20057;-55
2022/10/26 05:00:54;;;;;;;9.07;3.13;;;15.60;74.30;;;;;;4800118;29;20051;-55
2022/10/26 05:03:21;;;;;;;7.60;2.58;;;15.50;74.30;;;;;;4803253;29;20065;-54
2022/10/26 05:05:48;;;;;;;5.60;2.72;;;15.60;74.30;;;;;;4802100;29;20050;-53
2022/10/26 05:08:15;;;;;;;4.75;2.35;;;15.60;74.30;;;;;;4798537;29;20532;-55
2022/10/26 05:10:42;;;;;;;5.07;2.78;;;15.60;74.40;;;;;;4802165;29;20531;-54
2022/10/26 05:13:09;;;;;;;5.72;2.50;;;15.60;74.30;;;;;;4806201;29;20575;-54
2022/10/26 05:15:36;;;;;;;3.95;1.95;;;15.70;74.50;;;;;;4804553;29;20108;-54
2022/10/26 05:18:04;;;;;;;7.22;2.40;;;15.60;74.40;;;;;;4798597;29;20051;-53
2022/10/26 05:20:34;;;;;;;6.97;2.10;;;15.70;74.40;;;;;;4801641;29;20125;-54
2022/10/26 05:23:03;;;;;;;5.45;2.03;;;15.70;74.50;;;;;;4805520;29;20057;-54
2022/10/26 05:25:33;;;;;;;6.40;1.83;;;15.70;74.40;;;;;;4815420;29;20058;-54
2022/10/26 05:28:01;;;;;;;6.53;2.05;;;15.70;74.50;;;;;;4798498;29;20051;-54
2022/10/26 05:30:29;;;;;;;5.22;1.95;;;15.70;74.40;;;;;;4803207;29;20603;-54
2022/10/26 05:32:59;;;;;;;3.15;2.08;;;15.80;74.40;;;;;;4802537;29;20053;-54
2022/10/26 05:35:26;;;;;;;3.65;1.83;;;15.80;74.40;;;;;;4801037;29;20057;-54
2022/10/26 05:37:53;;;;;;;4.55;1.95;;;15.80;74.40;;;;;;4799228;29;20497;-54
2022/10/26 05:40:20;;;;;;;6.10;1.90;;;15.80;74.40;;;;;;4802875;29;20120;-54
2022/10/26 05:42:46;;;;;;;3.95;1.60;;;15.80;74.30;;;;;;4798718;29;20060;-54
2022/10/26 05:45:16;;;;;;;3.08;1.70;;;15.80;74.30;;;;;;4803953;29;20628;-54
2022/10/26 05:47:43;;;;;;;6.15;2.30;;;15.80;74.30;;;;;;4814590;29;20046;-55
2022/10/26 05:50:11;;;;;;;4.35;1.98;;;15.80;74.20;;;;;;4820488;29;20046;-54
2022/10/26 05:52:42;;;;;;;4.60;2.08;;;15.90;74.30;;;;;;4806379;29;20042;-54
2022/10/26 05:55:11;;;;;;;3.78;1.35;;;15.90;74.40;;;;;;4798534;29;20050;-52
2022/10/26 05:57:38;;;;;;;2.42;1.35;;;15.90;74.30;;;;;;4804867;29;20070;-54
2022/10/26 06:00:14;;;;;;;5.00;1.73;;;15.80;74.20;;;;;;4802950;29;20054;-54
2022/10/26 06:02:58;;;;;;;5.38;1.67;;;15.90;74.40;;;;;;4801775;29;20742;-53
2022/10/26 06:05:28;;;;;;;3.83;1.37;;;15.90;74.60;;;;;;4803049;29;20513;-52
2022/10/26 06:07:55;;;;;;;2.58;1.05;;;15.90;74.30;;;;;;4803548;29;20043;-52
2022/10/26 06:10:22;;;;;;;2.33;1.25;;;15.90;74.30;;;;;;4799388;29;20556;-54
2022/10/26 06:12:49;;;;;;;4.53;1.38;;;15.90;74.20;;;;;;4803046;29;20065;-54
2022/10/26 06:15:20;;;;;;;3.40;1.38;;;15.90;74.20;;;;;;4800429;29;20066;-53
2022/10/26 06:17:52;;;;;;;3.05;1.30;;;16.00;74.40;;;;;;4804275;29;20091;-53
2022/10/26 06:20:31;;;;;;;2.85;0.90;;;16.00;74.30;;;;;;4804844;29;20143;-54
2022/10/26 06:23:08;;;;;;;3.78;1.50;;;16.00;74.50;;;;;;4802258;29;20698;-54
2022/10/26 06:25:44;;;;;;;1.98;1.08;;;15.90;74.30;;;;;;4804381;29;20049;-54
2022/10/26 06:28:34;;;;;;;2.53;1.00;;;15.90;74.20;;;;;;4804715;29;20416;-54
2022/10/26 06:31:01;;;;;;;2.38;0.90;;;16.00;74.30;;;;;;4803953;29;20058;-53
2022/10/26 06:33:28;;;;;;;1.88;1.30;;;16.10;74.10;;;;;;4797213;29;20046;-54
2022/10/26 06:36:14;;;;;;;3.63;1.27;;;16.00;74.10;;;;;;4804566;29;20100;-53
2022/10/26 06:38:43;;;;;;;2.53;1.10;;;16.00;74.50;;;;;;4797521;29;20513;-54
2022/10/26 06:41:14;;;;;;;4.32;1.20;;;16.00;74.20;;;;;;4800920;29;20066;-54
2022/10/26 06:43:41;;;;;;;1.38;1.20;;;16.00;74.30;;;;;;4804136;29;20117;-53
2022/10/26 06:46:20;;;;;;;1.85;1.42;;;16.00;74.30;;;;;;4804544;29;20054;-54
2022/10/26 06:49:07;;;;;;;1.95;1.08;;;16.00;74.30;;;;;;4802690;29;20050;-54
2022/10/26 06:51:48;;;;;;;1.85;1.10;;;16.10;74.60;;;;;;4801358;29;20050;-54
2022/10/26 06:54:38;;;;;;;4.50;1.48;;;16.10;74.30;;;;;;4803705;29;20046;-54
2022/10/26 06:57:09;;;;;;;2.42;0.82;;;16.10;74.40;;;;;;4803755;29;20560;-54
2022/10/26 06:59:41;;;;;;;2.53;1.15;;;16.10;74.30;;;;;;4802441;29;20047;-54
2022/10/26 07:02:10;;;;;;;4.53;1.10;;;16.20;74.30;;;;;;4800324;29;20118;-54
2022/10/26 07:04:37;;;;;;;1.52;1.05;;;16.20;74.30;;;;;;4802661;29;20039;-54
2022/10/26 07:07:04;;;;;;;1.80;1.10;;;16.20;74.20;;;;;;4814975;29;20101;-54
2022/10/26 07:09:30;;;;;;;3.22;1.30;;;16.20;74.30;;;;;;4800799;29;20466;-54
2022/10/26 07:11:57;;;;;;;1.08;1.02;;;16.20;74.20;;;;;;4801488;29;20043;-54
2022/10/26 07:14:24;;;;;;;1.67;1.25;;;16.30;74.40;;;;;;4787503;29;20074;-54
2022/10/26 07:16:50;;;;;;;1.83;1.17;;;16.30;74.40;;;;;;4802817;29;20055;-54
2022/10/26 07:19:17;;;;;;;2.45;1.27;;;16.30;74.40;;;;;;4803910;29;20122;-54
2022/10/26 07:21:44;;;;;;;1.65;1.17;;;16.30;74.40;;;;;;4800752;29;20385;-54
2022/10/26 07:24:10;;;;;;;2.75;1.48;;;16.40;74.50;;;;;;4801505;29;20477;-54
2022/10/26 07:26:37;;;;;;;1.73;1.20;;;16.40;74.50;;;;;;4799648;29;20775;-54
2022/10/26 07:29:03;;;;;;;1.98;1.30;;;16.50;74.50;;;;;;4800679;29;20050;-54
2022/10/26 07:31:30;;;;;;;2.63;1.17;;;16.50;74.40;;;;;;4802579;29;20406;-54
2022/10/26 07:33:57;;;;;;;4.47;1.40;;;16.50;74.40;;;;;;4803589;29;20509;-54
2022/10/26 07:36:23;;;;;;;2.13;1.45;;;16.60;75.00;;;;;;4803990;29;20412;-54
2022/10/26 07:38:52;;;;;;;1.35;1.25;;;16.60;74.30;;;;;;4798865;29;20039;-54
2022/10/26 07:41:19;;;;;;;3.00;1.50;;;16.70;74.40;;;;;;4799434;29;20126;-54
2022/10/26 07:43:47;;;;;;;3.03;2.00;;;16.70;74.30;;;;;;4803450;29;20189;-54
2022/10/26 07:46:14;;;;;;;3.28;1.50;;;16.80;74.20;;;;;;4803813;29;20057;-53
2022/10/26 07:48:41;;;;;;;2.38;1.58;;;16.80;74.20;;;;;;4793411;29;20071;-54
2022/10/26 07:51:13;;;;;;;6.55;1.63;;;16.90;74.30;;;;;;4800470;29;20047;-54
2022/10/26 07:53:39;;;;;;;1.75;1.45;;;16.90;74.10;;;;;;4803142;29;20069;-54
2022/10/26 07:56:07;;;;;;;2.28;1.83;;;17.00;74.00;;;;;;4803670;29;20061;-54
2022/10/26 07:58:33;;;;;;;4.07;2.03;;;17.00;73.80;;;;;;4799484;29;20051;-53
2022/10/26 08:01:12;;;;;;;3.65;1.80;;;17.00;73.70;;;;;;4803165;29;20039;-54
2022/10/26 08:03:39;;;;;;;2.42;1.85;;;17.10;73.80;;;;;;4803151;29;20051;-53
2022/10/26 08:06:08;;;;;;;2.35;1.67;;;17.10;73.50;;;;;;4800850;29;20050;-54
2022/10/26 08:08:35;;;;;;;3.13;1.67;;;17.10;73.50;;;;;;4802667;29;20043;-54
2022/10/26 08:11:02;;;;;;;4.88;1.83;;;17.10;73.50;;;;;;4803226;29;20569;-54
2022/10/26 08:13:29;;;;;;;2.40;1.70;;;17.20;73.60;;;;;;4806832;29;20066;-54
2022/10/26 08:15:58;;;;;;;2.85;1.88;;;17.20;73.60;;;;;;4799538;29;20055;-51
2022/10/26 08:18:25;;;;;;;3.20;1.55;;;17.20;73.80;;;;;;4806734;29;20139;-54
2022/10/26 08:20:52;;;;;;;2.20;1.50;;;17.20;73.70;;;;;;4807023;29;20039;-54
2022/10/26 08:23:31;;;;;;;2.42;1.73;;;17.20;73.70;;;;;;4803893;29;20294;-54
2022/10/26 08:26:02;;;;;;;5.82;2.95;;;17.30;73.80;;;;;;4803715;29;20511;-54
2022/10/26 08:28:29;;;;;;;2.00;1.80;;;17.30;73.80;;;;;;4805499;29;20538;-54
2022/10/26 08:30:56;;;;;;;2.08;1.70;;;17.40;73.60;;;;;;4805657;29;20501;-51
2022/10/26 08:33:23;;;;;;;5.82;1.30;;;17.40;73.50;;;;;;4801024;29;20048;-50
2022/10/26 08:35:56;;;;;;;2.55;1.13;;;17.50;73.20;;;;;;4806628;29;20074;-50
2022/10/26 08:38:23;;;;;;;2.75;1.15;;;17.50;73.20;;;;;;4806695;29;20054;-54
2022/10/26 08:40:51;;;;;;;2.28;1.40;;;17.60;73.10;;;;;;4804608;29;20568;-53
2022/10/26 08:43:28;;;;;;;2.58;1.50;;;17.70;73.00;;;;;;4803397;29;20043;-54
2022/10/26 08:46:08;;;;;;;1.50;1.35;;;17.70;72.90;;;;;;4798390;29;20473;-54
2022/10/26 08:48:39;;;;;;;1.67;1.13;;;17.80;72.80;;;;;;4803446;29;20077;-53
2022/10/26 08:51:21;;;;;;;2.90;1.45;;;17.80;72.70;;;;;;4803362;29;20405;-53
2022/10/26 08:53:59;;;;;;;2.58;1.40;;;17.90;72.30;;;;;;4805568;29;20122;-54
2022/10/26 08:56:34;;;;;;;3.50;1.67;;;18.00;72.90;;;;;;4803531;29;20077;-53
2022/10/26 08:59:09;;;;;;;4.20;1.73;;;18.00;72.20;;;;;;4804368;29;20444;-54
2022/10/26 09:01:36;;;;;;;1.92;1.63;;;18.10;72.00;;;;;;4802040;29;20766;-54
2022/10/26 09:04:10;;;;;;;2.90;1.77;;;18.20;72.10;;;;;;4797735;29;20453;-53
2022/10/26 09:06:56;;;;;;;3.67;1.83;;;18.20;71.90;;;;;;4805503;29;20067;-54
2022/10/26 09:09:45;;;;;;;1.55;1.40;;;18.40;71.80;;;;;;4805734;29;20054;-54
2022/10/26 09:12:33;;;;;;;3.92;1.90;;;18.40;71.80;;;;;;4800260;29;20047;-53
2022/10/26 09:15:41;;;;;;;4.45;1.70;;;18.50;71.60;;;;;;4805613;29;20061;-54
2022/10/26 09:18:27;;;;;;;2.65;1.52;;;18.50;71.80;;;;;;4809970;29;20073;-52
2022/10/26 09:21:32;;;;;;;2.15;1.60;;;18.60;71.30;;;;;;4799910;29;20043;-52
2022/10/26 09:24:13;;;;;;;3.03;1.65;;;18.70;71.40;;;;;;4803274;29;20134;-53
2022/10/26 09:26:53;;;;;;;2.42;1.73;;;18.80;71.00;;;;;;4805874;29;20542;-50
2022/10/26 09:29:29;;;;;;;4.20;1.75;;;18.80;71.00;;;;;;4802566;29;20088;-53
2022/10/26 09:32:00;;;;;;;3.45;2.53;;;18.80;71.00;;;;;;4801183;29;20047;-51
2022/10/26 09:34:34;;;;;;;2.88;1.48;;;18.90;71.00;;;;;;4807282;29;20504;-50
2022/10/26 09:37:14;;;;;;;3.20;1.95;;;19.00;71.00;;;;;;4803611;29;20042;-52
2022/10/26 09:39:51;;;;;;;2.35;2.10;;;19.10;70.80;;;;;;4805408;29;20042;-54
2022/10/26 09:42:35;;;;;;;3.35;1.67;;;19.10;70.50;;;;;;4804521;29;20043;-50
2022/10/26 09:45:10;;;;;;;6.03;2.15;;;19.10;70.60;;;;;;4805109;29;20088;-52
2022/10/26 09:47:43;;;;;;;4.18;1.70;;;19.20;70.50;;;;;;4805452;29;20130;-52
2022/10/26 09:50:29;;;;;;;4.03;1.90;;;19.20;70.50;;;;;;4801054;29;20051;-53
2022/10/26 09:52:56;;;;;;;5.07;1.80;;;19.30;70.30;;;;;;4799448;29;20047;-54
2022/10/26 09:55:22;;;;;;;6.97;3.35;;;19.40;70.40;;;;;;4805442;29;20427;-51
2022/10/26 09:57:52;;;;;;;2.63;1.50;;;19.40;70.10;;;;;;4804829;29;20057;-53
2022/10/26 10:00:21;;;;;;;4.10;1.70;;;19.50;70.00;;;;;;4793880;29;20090;-54
2022/10/26 10:02:57;;;;;;;5.40;2.17;;;19.50;69.90;;;;;;4804335;29;20505;-52
2022/10/26 10:05:34;;;;;;;4.90;1.92;;;19.60;69.90;;;;;;4819663;29;20050;-53
2022/10/26 10:08:23;;;;;;;4.00;2.10;;;19.70;70.00;;;;;;4806909;29;20050;-54
2022/10/26 10:10:59;;;;;;;3.60;1.65;;;19.70;69.30;;;;;;4802724;29;20069;-54
2022/10/26 10:13:32;;;;;;;3.55;1.80;;;19.80;69.20;;;;;;4802652;29;20542;-53
2022/10/26 10:16:06;;;;;;;3.20;2.13;;;19.80;69.10;;;;;;4799943;29;20050;-54
2022/10/26 10:18:34;;;;;;;2.67;1.67;;;19.90;69.20;;;;;;4799506;29;20386;-50
2022/10/26 10:21:02;;;;;;;6.00;2.15;;;19.90;69.20;;;;;;4800512;29;20055;-53
2022/10/26 10:23:31;;;;;;;4.82;1.52;;;20.00;69.00;;;;;;4802031;29;20520;-54
2022/10/26 10:26:02;;;;;;;3.45;1.40;;;20.00;68.90;;;;;;4799752;29;20046;-54
2022/10/26 10:28:29;;;;;;;2.67;1.40;;;20.10;69.20;;;;;;4802852;29;20163;-53
2022/10/26 10:31:02;;;;;;;5.55;1.83;;;20.20;69.20;;;;;;4802245;29;20046;-55
2022/10/26 10:33:48;;;;;;;3.90;1.75;;;20.20;69.00;;;;;;4803318;29;20078;-52
2022/10/26 10:36:18;;;;;;;3.15;1.80;;;20.40;68.70;;;;;;4800766;29;20283;-53
2022/10/26 10:38:48;;;;;;;5.28;2.20;;;20.40;68.60;;;;;;4808110;29;20126;-53
2022/10/26 10:41:31;;;;;;;3.47;1.83;;;20.50;68.00;;;;;;4805673;29;20118;-54
2022/10/26 10:44:16;;;;;;;3.50;1.52;;;20.60;67.60;;;;;;4802518;29;20067;-54
2022/10/26 10:46:43;;;;;;;4.13;1.80;;;20.60;67.80;;;;;;4798698;29;20047;-55
2022/10/26 10:49:26;;;;;;;2.80;1.42;;;20.70;67.60;;;;;;4801932;29;20497;-51
2022/10/26 10:51:54;;;;;;;4.55;2.33;;;20.80;67.30;;;;;;4802290;29;20057;-53
2022/10/26 10:54:28;;;;;;;3.40;1.98;;;20.80;67.40;;;;;;4801877;29;20133;-56
2022/10/26 10:57:12;;;;;;;2.97;1.30;;;20.90;66.90;;;;;;4801367;29;20051;-52
2022/10/26 11:00:00;;;;;;;2.53;1.23;;;20.90;66.60;;;;;;4803680;29;20057;-54
2022/10/26 11:02:53;;;;;;;3.92;1.40;;;21.00;66.70;;;;;;4803460;29;20055;-52
2022/10/26 11:05:59;;;;;;;3.13;1.52;;;21.10;66.50;;;;;;4804885;29;20050;-51
2022/10/26 11:08:31;;;;;;;3.55;1.00;;;21.10;66.30;;;;;;4801993;29;20115;-52
2022/10/26 11:11:16;;;;;;;2.67;2.05;;;21.20;66.40;;;;;;4803604;29;20051;-54
2022/10/26 11:13:55;;;;;;;1.10;0.90;;;21.20;66.00;;;;;;4797713;29;20888;-50
2022/10/26 11:16:28;;;;;;;1.48;1.00;;;21.20;65.70;;;;;;4794165;29;20054;-51
2022/10/26 11:19:17;;;;;;;1.95;0.90;;;21.20;65.90;;;;;;4809264;29;20063;-54
2022/10/26 11:21:47;;;;;;;3.58;1.60;;;21.30;66.10;;;;;;4786097;29;20055;-53
2022/10/26 11:24:23;;;;;;;3.08;1.67;;;21.30;66.20;;;;;;4797931;29;20047;-52
2022/10/26 11:27:04;;;;;;;2.75;0.90;;;21.30;66.00;;;;;;4797900;29;20425;-51
2022/10/26 11:29:50;;;;;;;2.92;2.05;;;21.30;66.10;;;;;;4803288;29;20126;-54
2022/10/26 11:32:28;;;;;;;2.95;2.05;;;21.40;66.00;;;;;;4797757;29;20043;-53
2022/10/26 11:35:15;;;;;;;2.67;0.90;;;21.40;65.80;;;;;;4805121;29;20042;-55
2022/10/26 11:38:18;;;;;;;1.90;1.00;;;21.40;66.20;;;;;;4795063;29;20547;-50
2022/10/26 11:41:32;;;;;;;2.60;1.40;;;21.50;65.70;;;;;;4802976;29;20078;-52
2022/10/26 11:44:14;;;;;;;2.20;1.05;;;21.60;66.00;;;;;;4792664;29;20080;-54
2022/10/26 11:46:44;;;;;;;2.08;1.30;;;21.60;65.90;;;;;;4804458;29;20086;-53
2022/10/26 11:49:19;;;;;;;5.07;1.90;;;21.70;66.10;;;;;;4805070;29;20086;-51
2022/10/26 11:51:53;;;;;;;2.47;1.52;;;21.70;65.40;;;;;;4805401;29;20598;-54
2022/10/26 11:54:32;;;;;;;3.83;1.52;;;21.80;65.70;;;;;;4804621;29;20067;-51
2022/10/26 11:57:00;;;;;;;1.95;1.48;;;21.80;65.20;;;;;;4804885;29;20417;-50
2022/10/26 11:59:31;;;;;;;2.25;1.02;;;21.80;65.30;;;;;;4805085;29;20055;-53
2022/10/26 12:02:05;;;;;;;5.28;3.22;;;21.90;64.80;;;;;;4806285;29;20050;-52
2022/10/26 12:04:35;;;;;;;2.80;1.23;;;21.90;64.80;;;;;;4806534;29;20046;-53
2022/10/26 12:07:08;;;;;;;2.65;1.45;;;22.00;65.00;;;;;;4801488;29;20051;-50
2022/10/26 12:09:38;;;;;;;2.58;1.10;;;22.00;64.70;;;;;;4807028;29;20096;-54
2022/10/26 12:12:20;;;;;;;2.42;1.83;;;22.00;64.80;;;;;;4803604;29;20051;-51
2022/10/26 12:15:24;;;;;;;2.28;1.40;;;22.10;64.80;;;;;;4800487;29;20150;-52
2022/10/26 12:18:16;;;;;;;2.25;1.20;;;22.10;64.10;;;;;;4806663;29;20531;-50
2022/10/26 12:21:01;;;;;;;1.17;0.95;;;22.20;64.00;;;;;;4807013;29;20523;-54
2022/10/26 12:23:33;;;;;;;3.03;1.30;;;22.20;63.80;;;;;;4804798;29;20505;-54
2022/10/26 12:26:22;;;;;;;3.50;0.70;;;22.20;63.90;;;;;;4802749;29;20043;-56
2022/10/26 12:29:23;;;;;;;1.58;1.08;;;22.20;63.40;;;;;;4798437;29;20058;-50
2022/10/26 12:31:50;;;;;;;1.58;0.82;;;22.30;63.70;;;;;;4799482;29;20042;-53
2022/10/26 12:34:30;;;;;;;3.15;1.15;;;22.30;64.20;;;;;;4806241;29;20046;-51
2022/10/26 12:36:57;;;;;;;1.17;0.90;;;22.30;63.60;;;;;;4805155;29;20047;-52
2022/10/26 12:39:39;;;;;;;1.45;0.95;;;22.40;63.40;;;;;;4805893;29;20034;-51
2022/10/26 12:42:09;;;;;;;;;;;22.40;62.70;;;;;;4806530;29;20425;-54
2022/10/26 12:44:44;;;;;;;1.83;0.80;;;22.50;63.70;;;;;;4805405;29;20635;-54
2022/10/26 12:47:29;;;;;;;0.95;0.80;;;22.50;62.60;;;;;;4800906;29;20688;-52
2022/10/26 12:50:08;;;;;;;3.30;1.10;;;22.50;62.20;;;;;;4804487;29;20126;-51
2022/10/26 12:52:51;;;;;;;1.73;0.77;;;22.50;62.50;;;;;;4804901;29;20066;-52
2022/10/26 12:55:45;;;;;;;0.75;0.60;;;22.60;62.20;;;;;;4806072;29;20085;-53
2022/10/26 12:58:36;;;;;;;2.67;0.80;;;22.60;62.50;;;;;;4796993;29;20039;-53
2022/10/26 13:01:05;;;;;;;1.38;0.95;;;22.60;62.40;;;;;;4804518;29;20429;-53
2022/10/26 13:03:56;;;;;;;0.80;0.70;;;22.70;62.80;;;;;;4805291;29;20107;-51
2022/10/26 13:06:38;;;;;;;1.55;0.90;;;22.70;61.60;;;;;;4798592;29;20073;-54
2022/10/26 13:09:15;;;;;;;1.17;1.00;;;22.80;60.90;;;;;;4801925;29;20047;-53
2022/10/26 13:11:49;;;;;;;2.92;1.30;;;22.80;61.40;;;;;;4800749;29;20719;-50
2022/10/26 13:14:31;;;;;;;1.25;0.70;;;22.90;61.30;;;;;;4801725;29;20058;-52
2022/10/26 13:17:00;;;;;;;1.25;0.82;;;22.90;61.00;;;;;;4800798;29;20051;-54
2022/10/26 13:19:43;;;;;;;1.35;0.90;;;22.90;61.40;;;;;;4805936;29;20061;-50